Bob Baker Memorial Airport Kiana US
ICAO: PAIK
IATA:
Category: Medium
Scheduled Services:

Elevation: 166 ft
TransAlt. 18000 ft.

Airport Communications:
ANCHORAGE CNTR:119.2
CTAF:122.7

PAIK Zoom In..

If Map Doesn't Load, Click Here

Runways:

(A) RW 06 length 3400 ft width 100 ft
---- / hdg 64

(B) RW 24 length 3400 ft width 100 ft
---- / hdg 244

Location; PAIK
Day. 21 / Time. 14.56 Zulu
* Altimeter: 29.96
* Temperature: 04° c. 39.2°f.
* Wind from: 330° Speed 04 kn.
Dewpoint: 04° c.
Visibility: 10 Statute Miles.
Clouds: Overcast 4600 ft.

PAIK 211456Z AUTO 33004KT 10SM OVC046 04/04 A2996 RMK AO2 SLP150 T00390039 58008


Wind From 330°
Speed 04 kn.

 
 
jpsmedia.com for Web Design worldairports.se 2018   terms of use